createdAt,value
2018-12-03T00:00:26.267Z,12
2018-12-03T00:05:26.264Z,12
2018-12-03T00:10:26.808Z,12
2018-12-03T00:15:26.616Z,11
2018-12-03T00:20:26.378Z,11
2018-12-03T00:25:26.380Z,8
2018-12-03T00:30:26.457Z,12
2018-12-03T00:35:26.427Z,10
2018-12-03T00:40:26.357Z,9
2018-12-03T00:45:26.067Z,8
2018-12-03T00:50:26.582Z,9
2018-12-03T00:55:26.303Z,9
2018-12-03T01:00:26.792Z,8
2018-12-03T01:05:26.788Z,9
2018-12-03T01:10:26.878Z,12
2018-12-03T01:15:26.524Z,10
2018-12-03T01:20:26.417Z,12
2018-12-03T01:25:26.381Z,8
2018-12-03T01:30:26.364Z,11
2018-12-03T01:35:26.190Z,11
2018-12-03T01:40:26.346Z,9
2018-12-03T01:45:26.113Z,9
2018-12-03T01:50:26.326Z,9
2018-12-03T01:55:26.598Z,7
2018-12-03T02:00:29.927Z,8
2018-12-03T02:05:26.277Z,10
2018-12-03T02:10:26.360Z,7
2018-12-03T02:15:26.891Z,7
2018-12-03T02:20:26.213Z,7
2018-12-03T02:25:26.192Z,8
2018-12-03T02:30:26.410Z,7
2018-12-03T02:35:26.929Z,8
2018-12-03T02:40:26.994Z,8
2018-12-03T02:45:26.337Z,10
2018-12-03T02:50:26.670Z,10
2018-12-03T02:55:26.243Z,12
2018-12-03T03:00:26.215Z,9
2018-12-03T03:05:25.874Z,8
2018-12-03T03:10:26.293Z,8
2018-12-03T03:15:26.189Z,8
2018-12-03T03:20:26.825Z,9
2018-12-03T03:25:26.096Z,10
2018-12-03T03:30:26.225Z,8
2018-12-03T03:35:26.196Z,6
2018-12-03T03:40:26.240Z,8
2018-12-03T03:45:26.180Z,6
2018-12-03T03:50:26.030Z,6
2018-12-03T03:55:26.170Z,6
2018-12-03T04:00:26.377Z,10
2018-12-03T04:05:25.958Z,10
2018-12-03T04:10:26.242Z,10
2018-12-03T04:15:26.181Z,7
2018-12-03T04:20:25.904Z,7
2018-12-03T04:25:26.014Z,6
2018-12-03T04:30:26.144Z,6
2018-12-03T04:35:25.966Z,7
2018-12-03T04:40:26.349Z,10
2018-12-03T04:45:26.044Z,10
2018-12-03T04:50:25.947Z,6
2018-12-03T04:55:26.019Z,7
2018-12-03T05:00:26.305Z,7
2018-12-03T05:05:25.912Z,7
2018-12-03T05:10:26.086Z,7
2018-12-03T05:15:25.786Z,7
2018-12-03T05:20:25.927Z,12
2018-12-03T05:25:25.780Z,10
2018-12-03T05:30:25.960Z,9
2018-12-03T05:35:25.808Z,11
2018-12-03T05:40:26.158Z,9
2018-12-03T05:45:26.042Z,9
2018-12-03T05:50:25.929Z,10
2018-12-03T05:55:25.947Z,10
2018-12-03T06:00:25.962Z,10
2018-12-03T06:05:26.144Z,11
2018-12-03T06:10:25.912Z,11
2018-12-03T06:15:25.791Z,14
2018-12-03T06:20:25.941Z,14
2018-12-03T06:25:26.008Z,11
2018-12-03T06:30:25.924Z,14
2018-12-03T06:35:26.034Z,15
2018-12-03T06:40:25.689Z,10
2018-12-03T06:45:25.898Z,12
2018-12-03T06:50:25.797Z,12
2018-12-03T06:55:25.884Z,13
2018-12-03T07:00:26.211Z,14
2018-12-03T07:05:26.158Z,14
2018-12-03T07:10:26.399Z,14
2018-12-03T07:15:25.943Z,11
2018-12-03T07:20:25.855Z,11
2018-12-03T07:25:25.706Z,14
2018-12-03T07:30:25.864Z,12
2018-12-03T07:35:26.170Z,12
2018-12-03T07:40:26.369Z,12
2018-12-03T07:45:25.608Z,13
2018-12-03T07:50:25.705Z,16
2018-12-03T07:55:25.762Z,16
2018-12-03T08:00:25.929Z,16
2018-12-03T08:05:25.827Z,11
2018-12-03T08:10:25.815Z,12
2018-12-03T08:15:26.118Z,13
2018-12-03T08:20:25.424Z,12
2018-12-03T08:25:25.621Z,12
2018-12-03T08:30:25.715Z,12
2018-12-03T08:35:25.693Z,14
2018-12-03T08:40:26.438Z,15
2018-12-03T08:45:25.726Z,15
2018-12-03T08:50:26.088Z,15
2018-12-03T08:55:26.593Z,16
2018-12-03T09:00:25.555Z,12
2018-12-03T09:05:25.647Z,12
2018-12-03T09:10:25.537Z,12
2018-12-03T09:15:25.584Z,12
2018-12-03T09:20:25.563Z,12
2018-12-03T09:25:25.456Z,12
2018-12-03T09:30:27.867Z,13
2018-12-03T09:35:25.541Z,13
2018-12-03T09:40:25.398Z,13
2018-12-03T09:45:25.495Z,10
2018-12-03T09:50:25.322Z,12
2018-12-03T09:55:25.603Z,12
2018-12-03T10:00:25.470Z,13
2018-12-03T10:05:25.175Z,13
2018-12-03T10:10:25.277Z,9
2018-12-03T10:15:25.441Z,9
2018-12-03T10:20:25.173Z,9
2018-12-03T10:25:25.385Z,9
2018-12-03T10:30:25.203Z,9
2018-12-03T10:35:25.273Z,9
2018-12-03T10:40:25.280Z,15
2018-12-03T10:45:26.202Z,19
2018-12-03T10:50:25.963Z,19
2018-12-03T10:55:25.238Z,13
2018-12-03T11:00:25.429Z,13
2018-12-03T11:05:25.447Z,12
2018-12-03T11:10:25.474Z,12
2018-12-03T11:15:25.116Z,15
2018-12-03T11:20:25.455Z,14
2018-12-03T11:25:25.009Z,15
2018-12-03T11:30:25.240Z,15
2018-12-03T11:35:25.299Z,15
2018-12-03T11:40:25.074Z,15
2018-12-03T11:45:25.079Z,15
2018-12-03T11:50:25.176Z,15
2018-12-03T11:55:25.396Z,14
2018-12-03T12:00:25.331Z,14
2018-12-03T12:05:25.308Z,13
2018-12-03T12:10:25.096Z,9
2018-12-03T12:15:25.094Z,12
2018-12-03T12:20:25.195Z,14
2018-12-03T12:25:25.036Z,14
2018-12-03T12:30:25.332Z,13
2018-12-03T12:35:24.946Z,13
2018-12-03T12:40:25.201Z,14
2018-12-03T12:45:25.417Z,14
2018-12-03T12:50:25.008Z,17
2018-12-03T12:55:24.995Z,17
2018-12-03T13:00:25.310Z,11
2018-12-03T13:05:28.671Z,12
2018-12-03T13:10:25.438Z,14
2018-12-03T13:15:25.123Z,12
2018-12-03T13:20:25.248Z,10
2018-12-03T13:25:25.054Z,12
2018-12-03T13:30:25.071Z,11
2018-12-03T13:35:25.233Z,9
2018-12-03T13:40:24.844Z,9
2018-12-03T13:45:24.917Z,12
2018-12-03T13:50:25.287Z,11
2018-12-03T13:55:25.266Z,11
2018-12-03T14:00:25.139Z,11
2018-12-03T14:05:24.934Z,9
2018-12-03T14:10:25.164Z,9
2018-12-03T14:15:25.021Z,9
2018-12-03T14:20:24.960Z,9
2018-12-03T14:25:25.076Z,11
2018-12-03T14:30:24.953Z,11
2018-12-03T14:35:24.819Z,11
2018-12-03T14:40:24.995Z,11
2018-12-03T14:45:24.850Z,8
2018-12-03T14:50:24.908Z,10
2018-12-03T14:55:24.939Z,12
2018-12-03T15:00:24.847Z,13
2018-12-03T15:05:25.000Z,11
2018-12-03T15:10:24.888Z,10
2018-12-03T15:15:25.093Z,14
2018-12-03T15:20:24.969Z,9
2018-12-03T15:25:24.822Z,10
2018-12-03T15:30:24.756Z,9
2018-12-03T15:35:25.052Z,11
2018-12-03T15:40:24.811Z,11
2018-12-03T15:45:24.859Z,10
2018-12-03T15:50:24.794Z,10
2018-12-03T15:55:24.760Z,10
2018-12-03T16:00:24.996Z,16
2018-12-03T16:05:24.671Z,9
2018-12-03T16:10:24.725Z,10
2018-12-03T16:15:25.019Z,16
2018-12-03T16:20:24.729Z,15
2018-12-03T16:25:24.864Z,13
2018-12-03T16:30:24.853Z,13
2018-12-03T16:35:24.890Z,12
2018-12-03T16:40:24.811Z,11
2018-12-03T16:45:24.966Z,11
2018-12-03T16:50:25.094Z,9
2018-12-03T16:55:24.733Z,13
2018-12-03T17:00:24.767Z,13
2018-12-03T17:05:24.707Z,11
2018-12-03T17:10:24.957Z,11
2018-12-03T17:15:24.972Z,10
2018-12-03T17:20:24.889Z,13
2018-12-03T17:25:27.611Z,13
2018-12-03T17:30:24.676Z,9
2018-12-03T17:35:24.738Z,9
2018-12-03T17:40:24.722Z,12
2018-12-03T17:45:24.591Z,12
2018-12-03T17:50:25.427Z,10
2018-12-03T17:55:24.855Z,12
2018-12-03T18:00:24.918Z,12
2018-12-03T18:05:24.667Z,10
2018-12-03T18:10:24.733Z,10
2018-12-03T18:15:24.602Z,18
2018-12-03T18:20:24.423Z,13
2018-12-03T18:25:24.567Z,13
2018-12-03T18:30:24.508Z,12
2018-12-03T18:35:24.647Z,8
2018-12-03T18:40:24.560Z,12
2018-12-03T18:45:24.808Z,12
2018-12-03T18:50:24.799Z,10
2018-12-03T18:55:24.690Z,12
2018-12-03T19:00:24.724Z,11
2018-12-03T19:05:24.596Z,11
2018-12-03T19:10:24.509Z,10
2018-12-03T19:15:24.397Z,10
2018-12-03T19:20:24.463Z,9
2018-12-03T19:25:24.408Z,7
2018-12-03T19:30:24.793Z,10
2018-12-03T19:35:24.412Z,10
2018-12-03T19:40:24.350Z,6
2018-12-03T19:45:24.741Z,5
2018-12-03T19:50:24.628Z,5
2018-12-03T19:55:24.573Z,5
2018-12-03T20:00:24.555Z,6
2018-12-03T20:05:24.472Z,5
2018-12-03T20:10:24.306Z,10
2018-12-03T20:15:24.327Z,8
2018-12-03T20:20:24.330Z,10
2018-12-03T20:25:24.491Z,11
2018-12-03T20:30:25.846Z,6
2018-12-03T20:35:24.740Z,7
2018-12-03T20:40:27.686Z,10
2018-12-03T20:45:24.861Z,7
2018-12-03T20:50:24.677Z,7
2018-12-03T20:55:24.802Z,7
2018-12-03T21:00:24.484Z,8
2018-12-03T21:05:24.882Z,8
2018-12-03T21:10:24.843Z,10
2018-12-03T21:15:24.596Z,9
2018-12-03T21:20:24.956Z,7
2018-12-03T21:25:24.433Z,6
2018-12-03T21:30:24.293Z,6
2018-12-03T21:35:24.636Z,6
2018-12-03T21:40:24.477Z,8
2018-12-03T21:45:24.482Z,6
2018-12-03T21:50:24.610Z,8
2018-12-03T21:55:24.572Z,8
2018-12-03T22:00:24.483Z,5
2018-12-03T22:05:24.456Z,8
2018-12-03T22:10:24.207Z,6
2018-12-03T22:15:24.207Z,8
2018-12-03T22:20:24.333Z,9
2018-12-03T22:25:24.070Z,5
2018-12-03T22:30:24.266Z,5
2018-12-03T22:35:24.316Z,4
2018-12-03T22:40:24.244Z,8
2018-12-03T22:45:24.191Z,6
2018-12-03T22:50:24.478Z,6
2018-12-03T22:55:24.947Z,6
2018-12-03T23:00:24.283Z,8
2018-12-03T23:05:24.221Z,8
2018-12-03T23:10:24.303Z,5
2018-12-03T23:15:24.462Z,6
2018-12-03T23:20:24.337Z,6
2018-12-03T23:25:24.274Z,6
2018-12-03T23:30:24.258Z,6
2018-12-03T23:35:24.313Z,6
2018-12-03T23:40:24.197Z,6
2018-12-03T23:45:24.168Z,6
2018-12-03T23:50:24.080Z,7
2018-12-03T23:55:24.413Z,6
